Terminal Aerodrome Forecast
Issued by NWS Amarillo, TX

Home | Current Version | Previous Version | Text Only | Print | Product List | Glossary On
Versions: 1 2 3 4 5 6 7 8 9 10 11 12 13 14 15 16 17 18 19 20 21 22 23 24 25 26 27 28
000
FTUS44 KAMA 221100
TAFAMA
TAF
KAMA 221120Z 2212/2312 14008KT P6SM FEW030 SCT050
     FM221700 16014KT P6SM BKN080
     FM230100 16010KT P6SM BKN120=

USA.gov is the U.S. government's official web portal to all federal, state and local government web resources and services.